Terminal Aerodrome Forecast
Issued by NWS

Home | Current Version | Previous Version | Text Only | Print | Product List | Glossary On
Versions: 1 2 3 4 5 6 7 8 9 10 11 12 13 14 15 16 17 18 19 20 21 22
000
FTUS44 KLZK 042200 AAB
TAFHRO
TAF AMD
KHRO 042206Z 0422/0518 01010G18KT 5SM -SN BR SCT012 OVC035
      TEMPO 0422/0424 1SM -SN BR OVC012
     FM050000 01010G18KT 2SM -SN BR BKN008 OVC015
      TEMPO 0500/0504 1/2SM SN FZFG OVC005
     FM050400 01012KT 2SM -SN BR OVC005
     FM050800 02010KT 2SM -SN BR BKN005 OVC010
     FM051200 02010KT P6SM -SN OVC015=

USA.gov is the U.S. government's official web portal to all federal, state and local government web resources and services.